createdAt,value
2022-10-18T00:00:16.096Z,6.43
2022-10-18T00:05:21.730Z,4.40
2022-10-18T00:10:59.398Z,4.57
2022-10-18T00:16:07.588Z,5.78
2022-10-18T00:21:17.174Z,4.70
2022-10-18T00:26:42.342Z,6.10
2022-10-18T00:31:55.615Z,4.88
2022-10-18T00:37:27.226Z,4.30
2022-10-18T00:42:53.913Z,4.63
2022-10-18T00:53:32.233Z,4.22
2022-10-18T00:58:49.967Z,4.40
2022-10-18T01:04:29.684Z,4.50
2022-10-18T01:10:02.075Z,4.75
2022-10-18T01:15:35.568Z,4.47
2022-10-18T01:21:34.658Z,4.53
2022-10-18T01:27:38.881Z,4.85
2022-10-18T01:33:07.123Z,6.55
2022-10-18T01:38:20.281Z,4.72
2022-10-18T01:43:26.768Z,6.72
2022-10-18T01:48:34.486Z,5.43
2022-10-18T01:53:39.491Z,5.32
2022-10-18T01:58:49.671Z,4.53
2022-10-18T02:04:00.394Z,4.53
2022-10-18T02:09:08.969Z,7.07
2022-10-18T02:14:16.175Z,5.20
2022-10-18T02:19:27.606Z,4.82
2022-10-18T02:24:36.865Z,4.78
2022-10-18T02:29:42.851Z,4.72
2022-10-18T02:34:55.296Z,4.63
2022-10-18T02:40:00.456Z,5.60
2022-10-18T02:45:05.532Z,5.10
2022-10-18T02:50:13.356Z,4.43
2022-10-18T02:55:19.889Z,4.90
2022-10-18T03:00:24.936Z,5.63
2022-10-18T03:05:32.549Z,5.28
2022-10-18T03:10:37.637Z,4.50
2022-10-18T03:15:42.879Z,5.00
2022-10-18T03:20:50.591Z,5.55
2022-10-18T03:25:55.728Z,5.05
2022-10-18T03:31:04.163Z,5.05
2022-10-18T03:36:11.935Z,5.18
2022-10-18T03:41:16.951Z,5.57
2022-10-18T03:46:21.930Z,5.53
2022-10-18T03:51:29.524Z,4.55
2022-10-18T03:56:34.554Z,7.03
2022-10-18T04:01:39.636Z,5.25
2022-10-18T04:06:47.281Z,4.60
2022-10-18T04:11:53.299Z,4.95
2022-10-18T04:16:58.279Z,6.65
2022-10-18T04:22:05.877Z,4.57
2022-10-18T04:27:11.367Z,4.97
2022-10-18T04:32:16.387Z,5.25
2022-10-18T04:37:24.029Z,4.97
2022-10-18T04:42:29.089Z,4.55
2022-10-18T04:47:34.314Z,5.20
2022-10-18T04:52:42.163Z,5.63
2022-10-18T04:57:47.176Z,6.32
2022-10-18T05:02:52.171Z,5.60
2022-10-18T05:07:59.720Z,5.78
2022-10-18T05:13:04.687Z,5.07
2022-10-18T05:18:09.674Z,6.70
2022-10-18T05:23:17.232Z,5.30
2022-10-18T05:28:41.081Z,5.53
2022-10-18T05:33:46.448Z,5.40
2022-10-18T05:38:54.259Z,5.70
2022-10-18T05:43:59.211Z,5.28
2022-10-18T05:49:04.195Z,4.78
2022-10-18T05:54:13.985Z,5.28
2022-10-18T05:59:18.933Z,5.60
2022-10-18T06:04:24.136Z,5.18
2022-10-18T06:09:31.771Z,4.88
2022-10-18T06:14:36.975Z,4.80
2022-10-18T06:19:43.589Z,5.18
2022-10-18T06:24:56.441Z,4.25
2022-10-18T06:30:02.295Z,4.28
2022-10-18T06:35:08.254Z,4.70
2022-10-18T06:40:16.349Z,5.10
2022-10-18T06:45:21.441Z,3.92
2022-10-18T06:50:26.364Z,4.78
2022-10-18T06:55:34.219Z,4.13
2022-10-18T07:05:44.542Z,4.10
2022-10-18T07:10:58.271Z,5.72
2022-10-18T07:16:11.685Z,3.35
2022-10-18T07:21:21.194Z,4.20
2022-10-18T07:26:40.460Z,4.13
2022-10-18T07:31:45.644Z,3.30
2022-10-18T07:36:50.773Z,2.78
2022-10-18T07:41:58.433Z,3.67
2022-10-18T07:47:03.473Z,3.58
2022-10-18T07:52:09.809Z,3.10
2022-10-18T07:57:29.788Z,4.95
2022-10-18T08:02:40.596Z,1.98
2022-10-18T08:08:22.937Z,2.63
2022-10-18T08:13:30.943Z,3.13
2022-10-18T08:30:02.072Z,2.30
2022-10-18T08:46:08.884Z,2.33
2022-10-18T08:51:22.016Z,2.25
2022-10-18T08:56:40.389Z,2.25
2022-10-18T09:01:55.169Z,2.30
2022-10-18T09:07:17.232Z,2.20
2022-10-18T09:12:34.322Z,2.40
2022-10-18T09:17:54.676Z,2.55
2022-10-18T09:23:25.797Z,3.33
2022-10-18T09:28:53.081Z,2.15
2022-10-18T09:34:06.363Z,2.45
2022-10-18T09:39:15.968Z,1.92
2022-10-18T09:44:24.487Z,2.22
2022-10-18T09:49:39.097Z,1.80
2022-10-18T09:54:52.594Z,2.67
2022-10-18T10:00:02.302Z,2.15
2022-10-18T10:05:17.301Z,1.80
2022-10-18T10:10:24.805Z,2.33
2022-10-18T10:15:36.072Z,1.73
2022-10-18T10:20:49.268Z,1.60
2022-10-18T10:25:56.351Z,2.13
2022-10-18T10:36:30.590Z,2.45
2022-10-18T10:41:36.455Z,2.47
2022-10-18T10:46:53.318Z,1.92
2022-10-18T10:52:22.324Z,1.40
2022-10-18T10:57:42.709Z,2.10
2022-10-18T11:03:05.937Z,3.63
2022-10-18T11:08:31.611Z,2.47
2022-10-18T11:13:53.454Z,1.63
2022-10-18T11:19:18.994Z,1.70
2022-10-18T11:24:30.752Z,1.63
2022-10-18T11:29:52.744Z,1.10
2022-10-18T11:35:23.251Z,2.13
2022-10-18T11:40:52.313Z,2.30
2022-10-18T11:46:08.756Z,1.30
2022-10-18T11:51:38.712Z,1.83
2022-10-18T11:57:02.323Z,1.65
2022-10-18T12:02:38.811Z,1.10
2022-10-18T12:07:55.603Z,1.48
2022-10-18T12:13:29.399Z,1.35
2022-10-18T12:18:41.790Z,1.23
2022-10-18T12:23:56.534Z,1.52
2022-10-18T12:29:31.901Z,1.88
2022-10-18T12:34:44.607Z,1.70
2022-10-18T12:40:14.668Z,1.77
2022-10-18T12:45:55.539Z,3.50
2022-10-18T12:51:06.677Z,1.95
2022-10-18T12:56:54.194Z,1.58
2022-10-18T13:02:38.913Z,7.95
2022-10-18T13:07:56.963Z,3.38
2022-10-18T13:13:35.857Z,1.58
2022-10-18T13:19:04.169Z,1.60
2022-10-18T13:24:30.084Z,1.40
2022-10-18T13:30:08.765Z,2.55
2022-10-18T13:36:01.603Z,1.58
2022-10-18T13:41:13.355Z,1.92
2022-10-18T13:46:21.929Z,1.20
2022-10-18T13:51:56.430Z,1.20
2022-10-18T13:57:15.898Z,1.67
2022-10-18T14:02:57.704Z,1.98
2022-10-18T14:08:21.553Z,1.38
2022-10-18T14:13:51.895Z,1.55
2022-10-18T14:19:02.272Z,1.67
2022-10-18T14:24:18.898Z,1.65
2022-10-18T14:29:33.720Z,1.50
2022-10-18T14:34:45.450Z,1.40
2022-10-18T14:39:56.910Z,1.95
2022-10-18T14:45:20.503Z,1.60
2022-10-18T14:50:30.953Z,2.00
2022-10-18T14:55:54.178Z,2.10
2022-10-18T15:01:13.622Z,1.30
2022-10-18T15:11:29.503Z,1.55
2022-10-18T15:16:51.124Z,2.03
2022-10-18T15:22:30.376Z,2.47
2022-10-18T15:27:39.752Z,3.30
2022-10-18T15:33:20.598Z,3.33
2022-10-18T15:38:34.150Z,3.22
2022-10-18T15:43:42.478Z,3.17
2022-10-18T15:48:55.658Z,3.58
2022-10-18T15:55:32.889Z,2.80
2022-10-18T16:01:05.574Z,2.45
2022-10-18T16:07:20.797Z,2.53
2022-10-18T16:12:36.058Z,3.13
2022-10-18T16:18:09.079Z,2.75
2022-10-18T16:23:36.304Z,2.90
2022-10-18T16:29:50.630Z,3.75
2022-10-18T16:35:02.472Z,3.00
2022-10-18T16:40:41.280Z,4.05
2022-10-18T16:46:11.660Z,6.65
2022-10-18T16:51:18.354Z,4.85
2022-10-18T16:56:35.563Z,5.95
2022-10-18T17:01:42.274Z,9.68
2022-10-18T17:07:16.160Z,9.60
2022-10-18T17:12:52.765Z,6.93
2022-10-18T17:18:34.730Z,4.07
2022-10-18T17:35:53.387Z,6.05
2022-10-18T17:41:09.052Z,5.72
2022-10-18T17:46:21.022Z,4.68
2022-10-18T17:51:26.682Z,4.78
2022-10-18T17:56:34.840Z,5.78
2022-10-18T18:01:42.848Z,5.72
2022-10-18T18:06:49.316Z,5.80
2022-10-18T18:11:55.590Z,6.32
2022-10-18T18:17:04.467Z,8.60
2022-10-18T18:22:09.592Z,7.25
2022-10-18T18:27:14.742Z,7.50
2022-10-18T18:32:22.422Z,6.93
2022-10-18T18:37:27.469Z,4.55
2022-10-18T18:42:32.769Z,4.47
2022-10-18T18:47:41.914Z,3.42
2022-10-18T18:52:46.965Z,3.50
2022-10-18T18:57:51.969Z,3.78
2022-10-18T19:02:59.759Z,3.65
2022-10-18T19:08:05.637Z,3.53
2022-10-18T19:13:10.715Z,4.68
2022-10-18T19:18:23.151Z,3.88
2022-10-18T19:23:29.119Z,3.90
2022-10-18T19:28:34.101Z,4.95
2022-10-18T19:33:55.584Z,3.70
2022-10-18T19:39:00.965Z,3.13
2022-10-18T19:44:06.163Z,3.25
2022-10-18T19:49:14.197Z,2.70
2022-10-18T19:54:19.530Z,2.63
2022-10-18T19:59:25.155Z,3.10
2022-10-18T20:04:35.007Z,2.95
2022-10-18T20:09:40.211Z,4.40
2022-10-18T20:14:45.187Z,2.88
2022-10-18T20:19:53.555Z,3.20
2022-10-18T20:24:58.804Z,3.08
2022-10-18T20:30:07.583Z,3.13
2022-10-18T20:35:18.154Z,3.90
2022-10-18T20:40:23.178Z,2.28
2022-10-18T20:45:28.237Z,2.67
2022-10-18T20:50:36.461Z,2.75
2022-10-18T20:55:43.020Z,3.47
2022-10-18T21:00:48.022Z,2.55
2022-10-18T21:05:55.809Z,3.10
2022-10-18T21:11:03.737Z,3.85
2022-10-18T21:16:10.065Z,4.80
2022-10-18T21:21:19.495Z,8.32
2022-10-18T21:26:25.637Z,5.55
2022-10-18T21:31:32.143Z,4.00
2022-10-18T21:36:40.499Z,4.25
2022-10-18T21:41:45.681Z,3.20
2022-10-18T21:46:50.930Z,3.10
2022-10-18T21:51:58.663Z,4.07
2022-10-18T21:57:03.689Z,3.20
2022-10-18T22:02:08.792Z,3.17
2022-10-18T22:07:16.507Z,3.75
2022-10-18T22:12:21.492Z,3.85
2022-10-18T22:23:41.249Z,4.22
2022-10-18T22:28:50.123Z,3.83
2022-10-18T22:33:59.546Z,3.40
2022-10-18T22:39:28.750Z,3.42
2022-10-18T22:44:39.343Z,3.33
2022-10-18T22:49:48.891Z,3.58
2022-10-18T22:54:56.657Z,3.10
2022-10-18T23:00:01.809Z,3.80
2022-10-18T23:05:07.322Z,3.25
2022-10-18T23:10:15.683Z,3.70
2022-10-18T23:15:20.911Z,3.50
2022-10-18T23:20:26.029Z,3.70
2022-10-18T23:25:33.857Z,4.55
2022-10-18T23:30:41.920Z,4.05
2022-10-18T23:35:47.508Z,4.60
2022-10-18T23:40:55.199Z,4.57
2022-10-18T23:46:00.243Z,4.15
2022-10-18T23:51:06.089Z,4.03
2022-10-18T23:56:15.682Z,4.32
